Time;durP1;ratioP1;P1;durP2;ratioP2;P2;SDS_P1;SDS_P2;PMS_P1;PMS_P2;Temp;Humidity;BMP_temperature;BMP_pressure;BME280_temperature;BME280_humidity;BME280_pressure;Samples;Min_cycle;Max_cycle;Signal;HPM_P1;HPM_P2
2023/12/16 00:00:42;;;;;;;5.65;1.40;;;7.70;99.90;;;;;;5099025;28;20056;-62
2023/12/16 00:03:09;;;;;;;7.70;1.58;;;7.70;99.90;;;;;;5099536;28;20079;-62
2023/12/16 00:05:35;;;;;;;8.13;1.40;;;7.70;99.90;;;;;;5099864;28;20089;-62
2023/12/16 00:08:01;;;;;;;4.70;1.40;;;7.70;99.90;;;;;;5099026;28;20077;-63
2023/12/16 00:10:27;;;;;;;5.13;1.20;;;7.70;99.90;;;;;;5098672;28;20055;-62
2023/12/16 00:12:53;;;;;;;6.30;1.50;;;7.60;99.90;;;;;;5099682;28;20048;-62
2023/12/16 00:15:19;;;;;;;3.67;1.10;;;7.70;99.90;;;;;;5098490;28;20059;-62
2023/12/16 00:17:44;;;;;;;6.20;1.70;;;7.70;99.90;;;;;;5099939;28;20063;-63
2023/12/16 00:20:10;;;;;;;3.60;1.60;;;7.70;99.90;;;;;;5098902;28;20084;-62
2023/12/16 00:22:39;;;;;;;6.20;1.00;;;7.60;99.90;;;;;;5099792;28;20044;-62
2023/12/16 00:25:07;;;;;;;6.90;1.30;;;7.60;99.90;;;;;;5099776;28;20270;-61
2023/12/16 00:27:33;;;;;;;5.00;1.05;;;7.60;99.90;;;;;;5100445;28;20380;-62
2023/12/16 00:29:59;;;;;;;8.10;1.60;;;7.60;99.90;;;;;;5096821;28;20051;-62
2023/12/16 00:32:24;;;;;;;2.93;1.10;;;7.60;99.90;;;;;;5095989;28;20047;-63
2023/12/16 00:34:50;;;;;;;7.03;1.07;;;7.60;99.90;;;;;;5095469;28;20097;-63
2023/12/16 00:37:16;;;;;;;5.13;1.03;;;7.60;99.90;;;;;;5095255;28;20173;-63
2023/12/16 00:39:41;;;;;;;7.87;1.30;;;7.50;99.90;;;;;;5094439;28;20058;-64
2023/12/16 00:42:07;;;;;;;3.63;1.23;;;7.50;99.90;;;;;;5095973;28;20040;-64
2023/12/16 00:44:33;;;;;;;7.43;1.40;;;7.50;99.90;;;;;;5096195;28;20044;-63
2023/12/16 00:47:00;;;;;;;3.58;1.02;;;7.50;99.90;;;;;;5095094;28;20051;-63
2023/12/16 00:49:27;;;;;;;5.68;1.00;;;7.50;99.90;;;;;;5095256;28;20044;-63
2023/12/16 00:51:52;;;;;;;4.05;1.00;;;7.50;99.90;;;;;;5095762;28;20136;-62
2023/12/16 00:54:18;;;;;;;4.23;1.00;;;7.40;99.90;;;;;;5095808;28;20119;-64
2023/12/16 00:56:44;;;;;;;6.57;1.23;;;7.40;99.90;;;;;;5096442;28;20093;-63
2023/12/16 00:59:09;;;;;;;4.90;0.90;;;7.40;99.90;;;;;;5096205;28;20089;-62
2023/12/16 01:01:35;;;;;;;3.10;0.70;;;7.40;99.90;;;;;;5096301;28;20047;-63
2023/12/16 01:04:01;;;;;;;8.10;1.10;;;7.40;99.90;;;;;;5095704;28;20444;-62
2023/12/16 01:06:26;;;;;;;2.83;0.80;;;7.40;99.90;;;;;;5094879;28;20062;-64
2023/12/16 01:08:52;;;;;;;3.67;0.90;;;7.40;99.90;;;;;;5095917;28;20048;-65
2023/12/16 01:11:18;;;;;;;8.20;1.83;;;7.40;99.90;;;;;;5095806;28;20479;-62
2023/12/16 01:13:43;;;;;;;4.20;0.87;;;7.40;99.90;;;;;;5094608;28;20040;-63
2023/12/16 01:16:09;;;;;;;6.13;0.93;;;7.40;99.90;;;;;;5095815;28;20064;-63
2023/12/16 01:18:35;;;;;;;3.77;0.93;;;7.40;99.90;;;;;;5095904;28;20048;-62
2023/12/16 01:21:05;;;;;;;2.33;0.80;;;7.30;99.90;;;;;;5095846;28;20036;-62
2023/12/16 01:23:32;;;;;;;6.68;1.58;;;7.30;99.90;;;;;;5095552;28;20048;-63
2023/12/16 01:25:57;;;;;;;5.28;1.13;;;7.30;99.90;;;;;;5095661;28;20051;-63
2023/12/16 01:28:23;;;;;;;7.33;1.43;;;7.30;99.90;;;;;;5095662;28;20056;-63
2023/12/16 01:30:49;;;;;;;3.70;1.17;;;7.30;99.90;;;;;;5095540;28;20170;-63
2023/12/16 01:33:14;;;;;;;3.67;0.90;;;7.30;99.90;;;;;;5095301;28;20127;-63
2023/12/16 01:35:40;;;;;;;5.37;1.00;;;7.30;99.90;;;;;;5095397;28;20097;-63
2023/12/16 01:38:06;;;;;;;2.97;1.10;;;7.30;99.90;;;;;;5095279;28;20148;-64
2023/12/16 01:40:31;;;;;;;3.90;1.10;;;7.30;99.90;;;;;;5095219;28;20111;-63
2023/12/16 01:42:57;;;;;;;4.63;1.03;;;7.20;99.90;;;;;;5095168;28;20040;-63
2023/12/16 01:45:23;;;;;;;4.40;0.93;;;7.20;99.90;;;;;;5095294;28;20086;-64
2023/12/16 01:47:49;;;;;;;5.53;1.27;;;7.30;99.90;;;;;;5095215;28;20044;-63
2023/12/16 01:50:15;;;;;;;5.53;1.00;;;7.20;99.90;;;;;;5095007;28;20051;-62
2023/12/16 01:52:42;;;;;;;4.70;0.70;;;7.30;99.90;;;;;;5095050;28;20048;-62
2023/12/16 01:55:09;;;;;;;2.05;0.77;;;7.20;99.90;;;;;;5094925;28;20121;-64
2023/12/16 01:57:36;;;;;;;8.38;1.05;;;7.20;99.90;;;;;;5094857;28;20056;-63
2023/12/16 02:00:03;;;;;;;4.18;0.70;;;7.20;99.90;;;;;;5093827;28;20071;-63
2023/12/16 02:02:29;;;;;;;10.15;1.30;;;7.20;99.90;;;;;;5093520;28;20104;-63
2023/12/16 02:04:54;;;;;;;4.30;0.90;;;7.20;99.90;;;;;;5094675;28;20040;-64
2023/12/16 02:07:20;;;;;;;4.13;0.97;;;7.20;99.90;;;;;;5094831;28;20048;-63
2023/12/16 02:09:47;;;;;;;1.80;0.50;;;7.20;99.90;;;;;;5094548;28;20510;-63
2023/12/16 02:12:13;;;;;;;3.65;0.65;;;7.10;99.90;;;;;;5094483;28;20052;-66
2023/12/16 02:14:39;;;;;;;5.70;0.97;;;7.20;99.90;;;;;;5094448;28;20064;-63
2023/12/16 02:17:05;;;;;;;4.03;0.90;;;7.20;99.90;;;;;;5094663;28;20048;-63
2023/12/16 02:19:32;;;;;;;2.57;0.73;;;7.10;99.90;;;;;;5094480;28;20495;-62
2023/12/16 02:21:59;;;;;;;3.25;0.80;;;7.20;99.90;;;;;;5093382;28;20110;-62
2023/12/16 02:24:26;;;;;;;3.58;0.73;;;7.10;99.90;;;;;;5094486;28;20073;-64
2023/12/16 02:26:52;;;;;;;3.65;0.65;;;7.20;99.90;;;;;;5094448;28;20056;-63
2023/12/16 02:29:18;;;;;;;4.75;0.90;;;7.10;99.90;;;;;;5093284;28;20059;-63
2023/12/16 02:31:44;;;;;;;2.73;0.80;;;7.10;99.90;;;;;;5094348;28;20044;-63
2023/12/16 02:34:09;;;;;;;4.57;0.80;;;7.10;99.90;;;;;;5094077;28;20101;-63
2023/12/16 02:36:35;;;;;;;5.50;0.77;;;7.10;99.90;;;;;;5094186;28;20050;-64
2023/12/16 02:39:01;;;;;;;4.50;0.70;;;7.10;99.90;;;;;;5094786;28;20051;-64
2023/12/16 02:41:26;;;;;;;4.77;0.70;;;7.10;99.90;;;;;;5094464;28;20083;-63
2023/12/16 02:43:52;;;;;;;5.70;1.30;;;7.10;99.90;;;;;;5094074;28;20040;-63
2023/12/16 02:46:18;;;;;;;4.83;0.90;;;7.10;99.90;;;;;;5094141;28;20047;-62
2023/12/16 02:48:43;;;;;;;3.53;0.60;;;7.10;99.90;;;;;;5094146;28;20092;-64
2023/12/16 02:51:19;;;;;;;4.73;1.17;;;7.10;99.90;;;;;;5094079;28;20097;-64
2023/12/16 02:53:45;;;;;;;7.63;1.23;;;7.10;99.90;;;;;;5093678;28;20051;-63
2023/12/16 02:56:12;;;;;;;7.65;0.75;;;7.10;99.90;;;;;;5094127;28;20383;-64
2023/12/16 02:58:38;;;;;;;2.15;0.80;;;7.10;99.90;;;;;;5093965;28;20168;-63
2023/12/16 03:01:03;;;;;;;6.87;1.03;;;7.10;99.90;;;;;;5093064;28;20566;-64
2023/12/16 03:03:29;;;;;;;8.17;1.40;;;7.10;99.90;;;;;;5093656;28;20044;-62
2023/12/16 03:05:55;;;;;;;8.33;2.37;;;7.10;99.90;;;;;;5092613;28;20135;-62
2023/12/16 03:08:20;;;;;;;6.27;0.80;;;7.10;99.90;;;;;;5093909;28;20054;-63
2023/12/16 03:10:46;;;;;;;10.90;1.23;;;7.10;99.90;;;;;;5093857;28;20083;-63
2023/12/16 03:13:12;;;;;;;6.27;1.40;;;7.10;99.90;;;;;;5093679;28;20043;-63
2023/12/16 03:15:37;;;;;;;4.53;0.63;;;7.10;99.90;;;;;;5093420;28;20491;-62
2023/12/16 03:18:03;;;;;;;3.67;0.70;;;7.10;99.90;;;;;;5093767;28;20048;-63
2023/12/16 03:20:29;;;;;;;4.97;0.70;;;7.10;99.90;;;;;;5092316;28;20060;-63
2023/12/16 03:22:54;;;;;;;6.07;0.87;;;7.10;99.90;;;;;;5093001;28;20044;-63
2023/12/16 03:25:20;;;;;;;2.93;0.60;;;7.10;99.90;;;;;;5093024;28;20096;-63
2023/12/16 03:27:46;;;;;;;6.47;1.23;;;7.10;99.90;;;;;;5093312;28;20044;-64
2023/12/16 03:30:12;;;;;;;4.70;0.83;;;7.10;99.90;;;;;;5092414;28;20440;-64
2023/12/16 03:32:39;;;;;;;8.10;1.10;;;7.10;99.90;;;;;;5093281;28;20046;-63
2023/12/16 03:35:05;;;;;;;5.78;1.10;;;7.10;99.90;;;;;;5091960;28;20502;-63
2023/12/16 03:37:31;;;;;;;5.50;0.95;;;7.00;99.90;;;;;;5093592;28;20076;-64
2023/12/16 03:39:56;;;;;;;5.73;1.47;;;7.00;99.90;;;;;;5093616;28;20536;-63
2023/12/16 03:42:22;;;;;;;6.83;1.50;;;7.00;99.90;;;;;;5093603;28;20427;-63
2023/12/16 03:44:48;;;;;;;3.47;0.80;;;7.00;99.90;;;;;;5075702;28;20052;-63
2023/12/16 03:47:14;;;;;;;7.37;1.00;;;7.00;99.90;;;;;;5093536;28;20055;-65
2023/12/16 03:49:40;;;;;;;8.48;1.00;;;7.00;99.90;;;;;;5093303;28;20117;-63
2023/12/16 03:52:07;;;;;;;8.80;0.75;;;7.00;99.90;;;;;;5093525;28;20127;-63
2023/12/16 03:54:33;;;;;;;3.97;1.08;;;7.00;99.90;;;;;;5093422;28;20459;-62
2023/12/16 03:56:58;;;;;;;5.27;0.73;;;7.00;99.90;;;;;;5093560;28;20079;-62
2023/12/16 03:59:24;;;;;;;3.67;0.83;;;6.90;99.90;;;;;;5093193;28;20376;-64
2023/12/16 04:01:50;;;;;;;5.53;1.13;;;6.90;99.90;;;;;;5092450;28;20056;-63
2023/12/16 04:04:15;;;;;;;6.50;0.80;;;6.90;99.90;;;;;;5092175;28;20075;-62
2023/12/16 04:06:45;;;;;;;5.13;0.87;;;6.80;99.90;;;;;;5097156;28;20048;-63
2023/12/16 04:09:11;;;;;;;6.20;0.90;;;6.90;99.90;;;;;;5097179;28;20097;-63
2023/12/16 04:11:45;;;;;;;4.77;0.70;;;6.90;99.90;;;;;;5097228;28;20135;-64
2023/12/16 04:14:10;;;;;;;4.50;1.08;;;6.80;99.90;;;;;;5096932;28;20097;-62
2023/12/16 04:16:37;;;;;;;5.93;0.97;;;6.80;99.90;;;;;;5095555;28;20440;-63
2023/12/16 04:19:03;;;;;;;5.53;1.20;;;6.80;99.90;;;;;;5096825;28;20051;-62
2023/12/16 04:21:28;;;;;;;5.37;1.00;;;6.80;99.90;;;;;;5097033;28;20040;-63
2023/12/16 04:23:54;;;;;;;4.60;1.23;;;6.70;99.90;;;;;;5097187;28;20395;-62
2023/12/16 04:26:19;;;;;;;5.93;1.20;;;6.80;99.90;;;;;;5096739;28;20469;-63
2023/12/16 04:28:45;;;;;;;6.57;1.00;;;6.70;99.90;;;;;;5096785;28;20040;-63
2023/12/16 04:31:16;;;;;;;9.57;0.87;;;6.80;99.90;;;;;;5096648;28;20052;-64
2023/12/16 04:33:43;;;;;;;7.88;1.08;;;6.70;99.90;;;;;;5095552;28;20039;-64
2023/12/16 04:36:15;;;;;;;4.82;0.82;;;6.70;99.90;;;;;;5096868;28;20086;-62
2023/12/16 04:38:43;;;;;;;3.80;1.05;;;6.70;99.90;;;;;;5096571;28;20044;-63
2023/12/16 04:41:15;;;;;;;4.18;0.88;;;6.70;99.90;;;;;;5096501;28;20139;-63
2023/12/16 04:43:41;;;;;;;13.07;1.30;;;6.70;99.90;;;;;;5096342;28;20044;-62
2023/12/16 04:46:07;;;;;;;6.37;1.13;;;6.70;99.90;;;;;;5094820;28;20044;-61
2023/12/16 04:48:33;;;;;;;11.10;1.95;;;6.70;99.90;;;;;;5096430;28;20044;-62
2023/12/16 04:51:06;;;;;;;11.07;1.30;;;6.70;99.90;;;;;;5095114;28;20086;-63
2023/12/16 04:53:34;;;;;;;6.47;1.42;;;6.70;99.90;;;;;;5096191;28;20039;-63
2023/12/16 04:56:00;;;;;;;5.72;1.08;;;6.80;99.90;;;;;;5096160;28;20051;-63
2023/12/16 04:58:26;;;;;;;8.37;1.30;;;6.80;99.90;;;;;;5096103;28;20403;-63
2023/12/16 05:00:52;;;;;;;7.20;1.70;;;6.80;99.90;;;;;;5096436;28;20062;-62
2023/12/16 05:03:18;;;;;;;7.07;1.30;;;6.70;99.90;;;;;;5096109;28;20130;-63
2023/12/16 05:05:44;;;;;;;6.97;1.20;;;6.70;99.90;;;;;;5096046;28;20558;-63
2023/12/16 05:08:11;;;;;;;5.50;1.13;;;6.70;99.90;;;;;;5096018;28;20096;-63
2023/12/16 05:10:37;;;;;;;;;;;6.80;99.90;;;;;;5095242;28;20079;-64
2023/12/16 05:13:02;;;;;;;9.48;2.00;;;6.70;99.90;;;;;;5094754;28;19959;-63
2023/12/16 05:15:29;;;;;;;9.55;2.42;;;6.70;99.90;;;;;;5093871;28;20048;-63
2023/12/16 05:17:55;;;;;;;9.03;2.60;;;6.80;99.90;;;;;;5095852;28;20479;-63
2023/12/16 05:20:20;;;;;;;7.93;1.53;;;6.80;99.90;;;;;;5094852;28;20479;-63
2023/12/16 05:22:46;;;;;;;4.10;1.40;;;6.80;99.90;;;;;;5094844;28;20080;-63
2023/12/16 05:25:12;;;;;;;5.97;1.13;;;6.80;99.90;;;;;;5095723;28;20040;-62
2023/12/16 05:27:37;;;;;;;5.77;1.23;;;6.80;99.90;;;;;;5095701;28;20502;-62
2023/12/16 05:30:03;;;;;;;10.53;1.83;;;6.80;99.90;;;;;;5094413;28;20395;-62
2023/12/16 05:32:29;;;;;;;6.47;1.58;;;6.80;99.90;;;;;;5095555;28;20054;-63
2023/12/16 05:34:56;;;;;;;7.00;1.20;;;6.90;99.90;;;;;;5095349;28;20420;-63
2023/12/16 05:37:21;;;;;;;5.95;1.90;;;6.90;99.90;;;;;;5095470;28;20505;-64
2023/12/16 05:39:47;;;;;;;10.30;2.47;;;6.90;99.90;;;;;;5094155;28;20082;-63
2023/12/16 05:42:13;;;;;;;6.90;1.63;;;7.00;99.90;;;;;;5093992;28;20514;-63
2023/12/16 05:44:39;;;;;;;8.53;1.53;;;7.00;99.90;;;;;;5094985;28;20545;-62
2023/12/16 05:47:08;;;;;;;7.38;1.80;;;7.00;99.90;;;;;;5095033;28;20684;-63
2023/12/16 05:49:34;;;;;;;9.95;2.58;;;7.00;99.90;;;;;;5095228;28;20044;-63
2023/12/16 05:52:00;;;;;;;11.48;1.83;;;7.00;99.90;;;;;;5095102;28;20047;-64
2023/12/16 05:54:26;;;;;;;11.25;1.52;;;7.00;99.90;;;;;;5094979;28;20055;-63
2023/12/16 05:56:52;;;;;;;6.77;1.40;;;7.10;99.90;;;;;;5094870;28;20044;-64
2023/12/16 05:59:17;;;;;;;8.00;1.77;;;7.10;99.90;;;;;;5095124;28;20048;-65
2023/12/16 06:01:44;;;;;;;7.17;1.70;;;7.10;99.90;;;;;;5095192;28;20054;-64
2023/12/16 06:04:09;;;;;;;14.32;2.10;;;7.10;99.90;;;;;;5094831;28;20126;-64
2023/12/16 06:06:35;;;;;;;8.93;1.80;;;7.20;99.90;;;;;;5093509;28;20490;-64
2023/12/16 06:09:01;;;;;;;15.50;2.20;;;7.20;99.90;;;;;;5094861;28;20046;-63
2023/12/16 06:11:26;;;;;;;13.83;2.33;;;7.10;99.90;;;;;;5094478;28;20503;-63
2023/12/16 06:13:52;;;;;;;13.20;2.30;;;7.20;99.90;;;;;;5094598;28;20044;-63
2023/12/16 06:16:18;;;;;;;13.27;2.23;;;7.20;99.90;;;;;;5094760;28;20465;-63
2023/12/16 06:18:45;;;;;;;6.33;1.77;;;7.20;99.90;;;;;;5094611;28;20491;-62
2023/12/16 06:21:11;;;;;;;6.38;1.85;;;7.20;99.90;;;;;;5094802;28;20380;-62
2023/12/16 06:23:37;;;;;;;7.77;2.20;;;7.20;99.90;;;;;;5094407;28;20044;-62
2023/12/16 06:26:03;;;;;;;7.33;1.83;;;7.20;99.90;;;;;;5094400;28;20131;-62
2023/12/16 06:28:29;;;;;;;13.20;2.43;;;7.20;99.90;;;;;;5093740;28;20044;-63
2023/12/16 06:30:54;;;;;;;10.88;2.13;;;7.20;99.90;;;;;;5094434;28;20040;-62
2023/12/16 06:33:22;;;;;;;8.93;2.10;;;7.20;99.90;;;;;;5094309;28;20043;-63
2023/12/16 06:35:48;;;;;;;5.18;1.90;;;7.20;99.90;;;;;;5094391;28;20040;-62
2023/12/16 06:38:14;;;;;;;12.20;3.03;;;7.20;99.90;;;;;;5094319;28;20051;-64
2023/12/16 06:40:40;;;;;;;9.30;2.33;;;7.20;99.90;;;;;;5093126;28;20398;-63
2023/12/16 06:43:06;;;;;;;8.33;2.77;;;7.20;99.90;;;;;;5093038;28;20123;-63
2023/12/16 06:45:32;;;;;;;10.93;2.13;;;7.20;99.90;;;;;;5094226;28;20036;-63
2023/12/16 06:47:58;;;;;;;11.23;2.90;;;7.20;99.90;;;;;;5093374;28;20052;-63
2023/12/16 06:50:24;;;;;;;8.02;2.50;;;7.20;99.90;;;;;;5094142;28;20040;-63
2023/12/16 06:52:50;;;;;;;11.17;3.03;;;7.20;99.90;;;;;;5094014;28;20046;-63
2023/12/16 06:55:15;;;;;;;13.40;2.77;;;7.20;99.90;;;;;;5093814;28;20049;-62
2023/12/16 06:57:41;;;;;;;9.63;2.73;;;7.20;99.90;;;;;;5094120;28;20508;-63
2023/12/16 07:00:09;;;;;;;14.70;2.97;;;7.20;99.90;;;;;;5094138;28;20052;-64
2023/12/16 07:02:36;;;;;;;9.68;3.00;;;7.20;99.90;;;;;;5093969;28;20558;-63
2023/12/16 07:05:02;;;;;;;;;;;7.30;99.90;;;;;;5094603;28;20127;-63
2023/12/16 07:07:28;;;;;;;10.50;3.65;;;7.20;99.90;;;;;;5093721;28;20002;-62
2023/12/16 07:09:54;;;;;;;11.63;3.60;;;7.20;99.90;;;;;;5092788;28;20040;-62
2023/12/16 07:12:19;;;;;;;13.17;3.77;;;7.20;99.90;;;;;;5093625;28;20139;-62
2023/12/16 07:14:45;;;;;;;10.80;3.03;;;7.30;99.90;;;;;;5093650;28;20066;-61
2023/12/16 07:17:10;;;;;;;10.77;3.30;;;7.20;99.90;;;;;;5093844;28;20056;-64
2023/12/16 07:19:37;;;;;;;12.10;3.40;;;7.30;99.90;;;;;;5093922;28;20101;-62
2023/12/16 07:22:03;;;;;;;12.95;3.63;;;7.30;99.90;;;;;;5093646;28;20127;-63
2023/12/16 07:24:28;;;;;;;17.20;3.43;;;7.30;99.90;;;;;;5093684;28;20127;-62
2023/12/16 07:26:54;;;;;;;13.80;3.93;;;7.30;99.90;;;;;;5094121;28;20377;-62
2023/12/16 07:29:20;;;;;;;16.13;4.43;;;7.30;99.90;;;;;;5093642;28;20048;-62
2023/12/16 07:31:50;;;;;;;13.93;4.10;;;7.30;99.90;;;;;;5093974;28;20529;-63
2023/12/16 07:34:16;;;;;;;10.60;3.47;;;7.30;99.90;;;;;;5093654;28;20495;-64
2023/12/16 07:36:42;;;;;;;13.80;4.18;;;7.40;99.90;;;;;;5093666;28;20499;-63
2023/12/16 07:39:08;;;;;;;18.23;3.67;;;7.40;99.90;;;;;;5094977;28;20048;-62
2023/12/16 07:41:34;;;;;;;10.90;3.55;;;7.40;99.90;;;;;;5097500;28;20146;-63
2023/12/16 07:44:01;;;;;;;12.55;4.35;;;7.40;99.90;;;;;;5096676;28;20071;-63
2023/12/16 07:46:26;;;;;;;20.33;4.75;;;7.40;99.90;;;;;;5096409;28;20052;-63
2023/12/16 07:48:52;;;;;;;12.47;4.73;;;7.40;99.90;;;;;;5097614;28;20065;-63
2023/12/16 07:51:25;;;;;;;15.17;4.70;;;7.40;99.90;;;;;;5097528;28;20483;-62
2023/12/16 07:53:50;;;;;;;17.20;4.45;;;7.50;99.90;;;;;;5097182;28;20122;-62
2023/12/16 07:56:22;;;;;;;15.60;4.43;;;7.40;99.90;;;;;;5097435;28;20079;-63
2023/12/16 07:58:49;;;;;;;9.85;4.10;;;7.50;99.90;;;;;;5097420;28;20044;-63
2023/12/16 08:01:15;;;;;;;9.75;4.53;;;7.50;99.90;;;;;;5097390;28;20048;-63
2023/12/16 08:03:42;;;;;;;12.10;3.67;;;7.50;99.90;;;;;;5097410;28;20040;-63
2023/12/16 08:06:11;;;;;;;10.35;3.50;;;7.50;99.90;;;;;;5097101;28;20047;-63
2023/12/16 08:08:38;;;;;;;14.75;4.00;;;7.50;99.90;;;;;;5097006;28;20130;-63
2023/12/16 08:11:05;;;;;;;10.45;4.15;;;7.50;99.90;;;;;;5097216;28;20089;-63
2023/12/16 08:13:31;;;;;;;14.98;4.50;;;7.50;99.90;;;;;;5096964;28;20094;-63
2023/12/16 08:15:56;;;;;;;15.73;5.47;;;7.50;99.90;;;;;;5095695;28;20426;-63
2023/12/16 08:18:22;;;;;;;15.40;5.00;;;7.50;99.90;;;;;;5097354;28;20044;-63
2023/12/16 08:20:48;;;;;;;13.63;4.43;;;7.40;99.90;;;;;;5096997;28;20467;-63
2023/12/16 08:23:15;;;;;;;19.65;5.85;;;7.50;99.90;;;;;;5096759;28;20036;-63
2023/12/16 08:25:40;;;;;;;;;;;7.50;99.90;;;;;;5097523;28;20044;-63
2023/12/16 08:28:06;;;;;;;21.33;4.60;;;7.50;99.90;;;;;;5095867;28;19920;-63
2023/12/16 08:30:32;;;;;;;16.70;5.73;;;7.50;99.90;;;;;;5078950;28;20087;-63
2023/12/16 08:32:57;;;;;;;20.93;5.87;;;7.60;99.90;;;;;;5096701;28;20044;-64
2023/12/16 08:35:23;;;;;;;13.90;4.10;;;7.60;99.90;;;;;;5095187;28;20498;-62
2023/12/16 08:37:49;;;;;;;16.83;5.63;;;7.60;99.90;;;;;;5095445;28;20046;-63
2023/12/16 08:40:14;;;;;;;18.93;5.53;;;7.60;99.90;;;;;;5096818;28;20063;-63
2023/12/16 08:42:43;;;;;;;18.33;4.87;;;7.60;99.90;;;;;;5096911;28;20046;-63
2023/12/16 08:45:12;;;;;;;13.98;4.97;;;7.60;99.90;;;;;;5096467;28;20040;-63
2023/12/16 08:47:38;;;;;;;11.95;4.90;;;7.60;99.90;;;;;;5096486;28;20562;-63
2023/12/16 08:50:07;;;;;;;13.07;4.63;;;7.70;99.90;;;;;;5095730;28;20147;-64
2023/12/16 08:52:34;;;;;;;17.63;4.30;;;7.70;99.90;;;;;;5095977;28;20056;-63
2023/12/16 08:55:00;;;;;;;16.13;4.72;;;7.70;99.90;;;;;;5096779;28;20429;-64
2023/12/16 08:57:27;;;;;;;17.45;4.53;;;7.70;99.90;;;;;;5096270;28;20527;-62
2023/12/16 08:59:53;;;;;;;15.43;4.72;;;7.70;99.90;;;;;;5096455;28;20105;-63
2023/12/16 09:02:19;;;;;;;15.93;6.37;;;7.70;99.90;;;;;;5096268;28;20048;-63
2023/12/16 09:04:45;;;;;;;15.50;4.60;;;7.70;99.90;;;;;;5095862;28;20498;-63
2023/12/16 09:07:11;;;;;;;12.77;4.63;;;7.70;99.90;;;;;;5096431;28;20051;-63
2023/12/16 09:09:40;;;;;;;11.98;4.30;;;7.70;99.90;;;;;;5096244;28;20070;-63
2023/12/16 09:12:07;;;;;;;18.15;5.18;;;7.70;99.90;;;;;;5094724;28;20044;-64
2023/12/16 09:14:33;;;;;;;17.10;4.85;;;7.70;99.90;;;;;;5094484;28;20055;-62
2023/12/16 09:17:00;;;;;;;14.43;4.85;;;7.70;99.90;;;;;;5095804;28;20056;-64
2023/12/16 09:19:25;;;;;;;13.07;4.78;;;7.70;99.90;;;;;;5095799;28;20067;-63
2023/12/16 09:21:51;;;;;;;11.83;4.80;;;7.70;99.90;;;;;;5096254;28;20491;-64
2023/12/16 09:24:17;;;;;;;18.02;5.80;;;7.70;99.90;;;;;;5095606;28;20518;-63
2023/12/16 09:26:44;;;;;;;18.70;5.33;;;7.70;99.90;;;;;;5094662;28;20048;-63
2023/12/16 09:29:11;;;;;;;14.55;4.50;;;7.70;99.90;;;;;;5095678;28;20047;-63
2023/12/16 09:31:37;;;;;;;12.07;5.13;;;7.70;99.90;;;;;;5095315;28;20509;-62
2023/12/16 09:34:03;;;;;;;19.58;5.10;;;7.70;99.90;;;;;;5095317;28;20376;-63
2023/12/16 09:36:29;;;;;;;11.13;5.03;;;7.70;99.90;;;;;;5094363;28;20172;-63
2023/12/16 09:38:56;;;;;;;12.57;4.97;;;7.70;99.90;;;;;;5095417;28;20101;-62
2023/12/16 09:41:28;;;;;;;13.27;4.60;;;7.70;99.90;;;;;;5095533;28;20048;-63
2023/12/16 09:43:58;;;;;;;10.52;4.30;;;7.70;99.90;;;;;;5095303;28;20105;-62
2023/12/16 09:46:27;;;;;;;13.80;4.53;;;7.70;99.90;;;;;;5094996;28;20047;-62
2023/12/16 09:48:54;;;;;;;14.27;4.70;;;7.70;99.90;;;;;;5095230;28;20105;-63
2023/12/16 09:51:21;;;;;;;14.65;5.05;;;7.80;99.90;;;;;;5095232;28;20055;-62
2023/12/16 09:53:48;;;;;;;17.58;4.68;;;7.80;99.90;;;;;;5095108;28;20047;-63
2023/12/16 09:56:15;;;;;;;13.25;4.90;;;7.80;99.90;;;;;;5095231;28;20123;-63
2023/12/16 09:58:44;;;;;;;12.82;4.80;;;7.80;99.90;;;;;;5094830;28;20391;-63
2023/12/16 10:01:10;;;;;;;14.93;4.97;;;7.80;99.90;;;;;;5095050;28;20505;-62
2023/12/16 10:03:37;;;;;;;15.75;5.40;;;7.80;99.90;;;;;;5095078;28;20131;-63
2023/12/16 10:06:05;;;;;;;15.68;6.38;;;7.80;99.90;;;;;;5095357;28;20493;-63
2023/12/16 10:08:31;;;;;;;18.15;5.35;;;7.80;99.90;;;;;;5094742;28;20058;-64
2023/12/16 10:10:58;;;;;;;18.10;6.77;;;7.80;99.90;;;;;;5094882;28;20036;-63
2023/12/16 10:13:25;;;;;;;14.63;5.03;;;7.80;99.90;;;;;;5094585;28;20453;-62
2023/12/16 10:15:51;;;;;;;17.73;4.88;;;7.90;99.90;;;;;;5094711;28;20052;-63
2023/12/16 10:18:17;;;;;;;13.83;5.80;;;7.90;99.90;;;;;;5094771;28;20100;-63
2023/12/16 10:20:43;;;;;;;16.90;4.95;;;7.90;99.90;;;;;;5094906;28;20108;-62
2023/12/16 10:23:10;;;;;;;9.10;4.47;;;7.90;99.90;;;;;;5094641;28;20116;-62
2023/12/16 10:25:37;;;;;;;13.35;4.78;;;7.90;99.90;;;;;;5094335;28;20044;-61
2023/12/16 10:28:02;;;;;;;12.02;4.57;;;8.00;99.90;;;;;;5094376;28;20048;-62
2023/12/16 10:30:29;;;;;;;19.57;5.80;;;8.00;99.90;;;;;;5094302;28;20055;-62
2023/12/16 10:32:56;;;;;;;14.98;5.05;;;8.00;99.90;;;;;;5094747;28;20383;-63
2023/12/16 10:35:23;;;;;;;;;;;8.00;99.90;;;;;;5093489;28;20126;-62
2023/12/16 10:37:50;;;;;;;20.37;5.93;;;8.00;99.90;;;;;;5094447;28;19927;-62
2023/12/16 10:40:17;;;;;;;17.42;5.20;;;8.00;99.90;;;;;;5094306;28;20127;-62
2023/12/16 10:42:43;;;;;;;9.40;4.50;;;8.00;99.90;;;;;;5094224;28;20390;-62
2023/12/16 10:45:13;;;;;;;14.68;4.70;;;8.00;99.90;;;;;;5094074;28;20040;-62
2023/12/16 10:47:39;;;;;;;11.35;4.50;;;8.00;99.90;;;;;;5094378;28;20040;-61
2023/12/16 10:50:09;;;;;;;7.78;3.90;;;8.00;99.90;;;;;;5094049;28;20063;-62
2023/12/16 10:52:49;;;;;;;17.35;4.55;;;8.00;99.90;;;;;;5094194;28;20051;-62
2023/12/16 10:55:39;;;;;;;14.32;5.32;;;8.00;99.90;;;;;;5093839;28;20054;-62
2023/12/16 10:58:20;;;;;;;17.45;5.25;;;8.00;99.90;;;;;;5094638;28;20044;-62
2023/12/16 11:00:50;;;;;;;15.23;5.30;;;8.10;99.90;;;;;;5093979;28;20509;-62
2023/12/16 11:03:21;;;;;;;18.42;4.72;;;8.10;99.90;;;;;;5093123;28;20048;-62
2023/12/16 11:05:50;;;;;;;9.55;4.35;;;8.10;99.90;;;;;;5093820;28;20044;-62
2023/12/16 11:08:17;;;;;;;13.35;5.18;;;8.10;99.90;;;;;;5092940;28;20048;-61
2023/12/16 11:10:43;;;;;;;10.55;4.25;;;8.20;99.90;;;;;;5093747;28;20494;-62
2023/12/16 11:13:10;;;;;;;15.02;4.43;;;8.20;99.90;;;;;;5093793;28;20044;-61
2023/12/16 11:15:36;;;;;;;12.48;5.20;;;8.20;99.90;;;;;;5093923;28;20056;-61
2023/12/16 11:18:16;;;;;;;11.10;4.80;;;8.20;99.90;;;;;;5093512;28;20048;-63
2023/12/16 11:20:46;;;;;;;12.05;4.35;;;8.20;99.90;;;;;;5093843;28;20048;-61
2023/12/16 11:23:16;;;;;;;12.23;3.78;;;8.30;99.90;;;;;;5093999;28;20059;-61
2023/12/16 11:25:45;;;;;;;12.63;4.30;;;8.30;99.90;;;;;;5093710;28;20043;-63
2023/12/16 11:28:14;;;;;;;10.13;4.22;;;8.30;99.90;;;;;;5093691;28;20043;-61
2023/12/16 11:30:41;;;;;;;8.93;3.65;;;8.30;99.90;;;;;;5093727;28;20557;-62
2023/12/16 11:33:07;;;;;;;10.43;4.05;;;8.40;99.90;;;;;;5093672;28;20177;-62
2023/12/16 11:35:36;;;;;;;7.88;3.63;;;8.40;99.90;;;;;;5093760;28;20083;-63
2023/12/16 11:38:08;;;;;;;11.15;3.90;;;8.50;99.90;;;;;;5093431;28;20133;-62
2023/12/16 11:40:41;;;;;;;9.85;3.83;;;8.50;99.90;;;;;;5093830;28;20048;-62
2023/12/16 11:43:08;;;;;;;12.82;4.60;;;8.50;99.90;;;;;;5093375;28;20044;-63
2023/12/16 11:45:46;;;;;;;10.38;3.53;;;8.50;99.90;;;;;;5093385;28;20040;-62
2023/12/16 11:48:16;;;;;;;7.72;3.58;;;8.60;99.90;;;;;;5093567;28;20044;-62
2023/12/16 11:50:44;;;;;;;6.72;3.38;;;8.60;99.90;;;;;;5093507;28;20051;-62
2023/12/16 11:53:11;;;;;;;11.35;3.85;;;8.60;99.90;;;;;;5093256;28;20083;-61
2023/12/16 11:55:38;;;;;;;7.93;3.45;;;8.60;99.90;;;;;;5093469;28;20123;-62
2023/12/16 11:58:04;;;;;;;9.32;3.17;;;8.70;99.90;;;;;;5093316;28;20044;-63
2023/12/16 12:00:30;;;;;;;6.72;2.65;;;8.70;99.90;;;;;;5093407;28;20495;-63
2023/12/16 12:02:59;;;;;;;7.15;3.05;;;8.70;99.90;;;;;;5093582;28;20040;-63
2023/12/16 12:05:29;;;;;;;7.95;2.83;;;8.70;99.90;;;;;;5093605;28;20047;-62
2023/12/16 12:07:55;;;;;;;7.22;2.70;;;8.70;99.90;;;;;;5093178;28;20491;-61
2023/12/16 12:10:22;;;;;;;6.63;2.55;;;8.70;99.90;;;;;;5093272;28;20439;-62
2023/12/16 12:12:50;;;;;;;8.85;3.08;;;8.80;99.90;;;;;;5093604;28;20044;-62
2023/12/16 12:15:16;;;;;;;6.60;2.95;;;8.70;99.90;;;;;;5093097;28;20051;-63
2023/12/16 12:17:41;;;;;;;6.13;2.30;;;8.80;99.90;;;;;;5093356;28;20410;-62
2023/12/16 12:20:10;;;;;;;9.53;2.60;;;8.80;99.90;;;;;;5093298;28;20620;-62
2023/12/16 12:22:36;;;;;;;6.68;2.70;;;8.80;99.90;;;;;;5093107;28;20080;-62
2023/12/16 12:25:02;;;;;;;6.27;2.40;;;8.80;99.90;;;;;;5093091;28;20036;-62
2023/12/16 12:27:29;;;;;;;7.22;2.85;;;8.80;99.90;;;;;;5096375;28;20109;-62
2023/12/16 12:29:55;;;;;;;;;;;8.80;99.90;;;;;;5096308;28;20134;-63
2023/12/16 12:32:21;;;;;;;6.68;2.38;;;8.80;99.90;;;;;;5096782;28;20018;-63
2023/12/16 12:34:59;;;;;;;6.78;2.70;;;8.80;99.90;;;;;;5096715;28;20043;-62
2023/12/16 12:37:26;;;;;;;6.88;3.05;;;8.80;99.90;;;;;;5096538;28;20065;-63
2023/12/16 12:39:52;;;;;;;8.27;2.65;;;8.80;99.90;;;;;;5096625;28;20040;-62
2023/12/16 12:42:18;;;;;;;8.25;3.00;;;8.80;99.90;;;;;;5096626;28;20067;-63
2023/12/16 12:45:02;;;;;;;6.90;2.63;;;8.80;99.90;;;;;;5096451;28;20463;-64
2023/12/16 12:47:29;;;;;;;10.63;4.03;;;8.80;99.90;;;;;;5096478;28;20059;-63
2023/12/16 12:49:56;;;;;;;7.43;2.90;;;8.80;99.90;;;;;;5096393;28;20052;-62
2023/12/16 12:52:41;;;;;;;7.63;2.88;;;8.80;99.90;;;;;;5095983;28;20044;-63